Time;durP1;ratioP1;P1;durP2;ratioP2;P2;SDS_P1;SDS_P2;PMS_P1;PMS_P2;Temp;Humidity;BMP_temperature;BMP_pressure;BME280_temperature;BME280_humidity;BME280_pressure;Samples;Min_cycle;Max_cycle;Signal;HPM_P1;HPM_P2
2023/08/26 00:01:50;;;;;;;6.43;3.40;;;14.70;99.90;;;;;;5055805;28;20048;-94
2023/08/26 00:04:16;;;;;;;5.85;2.97;;;15.60;99.90;;;;;;5055697;28;20515;-94
2023/08/26 00:06:42;;;;;;;6.93;3.35;;;15.50;99.90;;;;;;5055759;28;20044;-94
2023/08/26 00:09:08;;;;;;;5.40;3.08;;;15.50;99.90;;;;;;5037658;28;20142;-93
2023/08/26 00:11:33;;;;;;;5.82;3.50;;;15.50;99.90;;;;;;5038112;28;20049;-94
2023/08/26 00:13:59;;;;;;;5.47;3.35;;;15.40;99.90;;;;;;5055863;28;20395;-94
2023/08/26 00:16:25;;;;;;;6.70;3.03;;;15.40;99.90;;;;;;5056183;28;20048;-93
2023/08/26 00:18:50;;;;;;;8.73;3.30;;;15.40;99.90;;;;;;5037934;28;20522;-93
2023/08/26 00:21:21;;;;;;;5.43;2.88;;;15.40;99.90;;;;;;5056273;28;20041;-93
2023/08/26 00:23:47;;;;;;;5.13;2.92;;;15.40;99.90;;;;;;5047239;28;20565;-95
2023/08/26 00:26:12;;;;;;;5.57;2.88;;;15.30;99.90;;;;;;5037436;28;20052;-96
2023/08/26 00:28:38;;;;;;;6.50;2.92;;;15.30;99.90;;;;;;5038017;28;20037;-96
2023/08/26 00:31:04;;;;;;;5.57;3.30;;;15.30;99.90;;;;;;5037394;28;20045;-94
2023/08/26 00:33:29;;;;;;;6.00;3.53;;;15.20;99.90;;;;;;5055333;28;20118;-95
2023/08/26 00:35:55;;;;;;;7.43;3.03;;;15.20;99.90;;;;;;5055494;28;20190;-95
2023/08/26 00:38:21;;;;;;;5.63;3.10;;;15.20;99.90;;;;;;5037521;28;20052;-95
2023/08/26 00:40:47;;;;;;;6.53;3.13;;;15.10;99.90;;;;;;5055029;28;20048;-93
2023/08/26 00:43:13;;;;;;;6.25;3.65;;;15.10;99.90;;;;;;5055613;28;20041;-95
2023/08/26 00:45:42;;;;;;;6.47;2.72;;;15.00;99.90;;;;;;5055270;28;20403;-95
2023/08/26 00:48:11;;;;;;;4.20;2.53;;;15.00;99.90;;;;;;5055313;28;20045;-92
2023/08/26 00:50:39;;;;;;;5.65;2.40;;;14.90;99.90;;;;;;5055186;28;20140;-93
2023/08/26 00:53:13;;;;;;;3.80;2.35;;;14.90;99.90;;;;;;5054928;28;20076;-92
2023/08/26 00:55:40;;;;;;;5.82;2.25;;;14.80;99.90;;;;;;5037658;28;20075;-93
2023/08/26 00:58:06;;;;;;;4.97;2.65;;;14.80;99.90;;;;;;5055216;28;20060;-90
2023/08/26 01:00:35;;;;;;;4.80;2.30;;;14.70;99.90;;;;;;5035882;28;20048;-89
2023/08/26 01:03:01;;;;;;;5.38;2.20;;;14.70;99.90;;;;;;5054384;28;20102;-91
2023/08/26 01:05:28;;;;;;;4.30;2.13;;;14.60;99.90;;;;;;5054577;28;20484;-91
2023/08/26 01:07:55;;;;;;;6.20;2.08;;;14.60;99.90;;;;;;5053678;28;20092;-90
2023/08/26 01:10:31;;;;;;;5.25;2.30;;;14.50;99.90;;;;;;5035685;28;20128;-90
2023/08/26 01:13:04;;;;;;;3.78;2.33;;;14.50;99.90;;;;;;5053583;28;20095;-89
2023/08/26 01:15:31;;;;;;;4.47;2.60;;;14.40;99.90;;;;;;5053579;28;20057;-89
2023/08/26 01:17:59;;;;;;;3.08;2.03;;;14.40;99.90;;;;;;5053867;28;20044;-90
2023/08/26 01:20:25;;;;;;;3.42;2.17;;;14.30;99.90;;;;;;5039191;28;20040;-88
2023/08/26 01:22:55;;;;;;;4.30;2.10;;;14.30;99.90;;;;;;5070695;28;20048;-88
2023/08/26 01:25:21;;;;;;;4.97;2.33;;;14.30;99.90;;;;;;5052870;28;20045;-89
2023/08/26 01:27:47;;;;;;;3.63;2.10;;;14.30;99.90;;;;;;5052754;28;20055;-89
2023/08/26 01:30:13;;;;;;;5.65;2.40;;;14.20;99.90;;;;;;5053307;28;20044;-90
2023/08/26 01:33:09;;;;;;;5.75;1.80;;;14.20;99.90;;;;;;5053818;28;20436;-88
2023/08/26 01:35:41;;;;;;;4.50;2.03;;;14.10;99.90;;;;;;5035010;28;20055;-89
2023/08/26 01:38:08;;;;;;;3.60;2.10;;;14.20;99.90;;;;;;5052433;28;20044;-89
2023/08/26 01:40:34;;;;;;;5.60;2.50;;;14.10;99.90;;;;;;5053266;28;20041;-89
2023/08/26 01:43:03;;;;;;;5.72;2.25;;;14.10;99.90;;;;;;5052691;28;20479;-88
2023/08/26 01:45:28;;;;;;;3.72;2.10;;;14.00;99.90;;;;;;5053143;28;20499;-89
2023/08/26 01:47:54;;;;;;;3.28;1.70;;;14.00;99.90;;;;;;5053081;28;20087;-89
2023/08/26 01:50:20;;;;;;;5.40;1.92;;;13.90;99.90;;;;;;5034736;28;20821;-89
2023/08/26 01:52:45;;;;;;;4.55;2.10;;;13.90;99.90;;;;;;5053350;28;20037;-88
2023/08/26 01:55:11;;;;;;;4.95;2.00;;;13.70;99.90;;;;;;5035132;28;20040;-89
2023/08/26 01:57:37;;;;;;;3.50;1.60;;;13.70;99.90;;;;;;5052897;28;20041;-90
2023/08/26 02:00:05;;;;;;;3.35;1.73;;;13.70;99.90;;;;;;5053141;28;20045;-89
2023/08/26 02:02:30;;;;;;;3.00;1.80;;;13.60;99.90;;;;;;5035694;28;20102;-91
2023/08/26 02:05:02;;;;;;;4.88;2.10;;;13.50;99.90;;;;;;5052920;28;20529;-90
2023/08/26 02:07:28;;;;;;;4.32;1.98;;;13.40;99.90;;;;;;5053001;28;20052;-90
2023/08/26 02:09:53;;;;;;;6.05;2.03;;;13.30;99.90;;;;;;5052598;28;20159;-90
2023/08/26 02:12:19;;;;;;;3.38;1.83;;;13.40;99.90;;;;;;5035441;28;20064;-89
2023/08/26 02:14:44;;;;;;;3.20;2.10;;;13.30;99.90;;;;;;5053707;28;20083;-90
2023/08/26 02:17:10;;;;;;;3.80;2.40;;;13.20;99.90;;;;;;5055158;28;20106;-91
2023/08/26 02:19:36;;;;;;;4.35;2.05;;;13.20;99.90;;;;;;5035178;28;20075;-90
2023/08/26 02:22:01;;;;;;;4.45;2.47;;;13.20;99.90;;;;;;5056149;28;20365;-91
2023/08/26 02:24:27;;;;;;;3.67;2.20;;;13.10;99.90;;;;;;5039729;28;20499;-90
2023/08/26 02:26:53;;;;;;;4.88;2.38;;;13.10;99.90;;;;;;5039253;28;20052;-90
2023/08/26 02:29:18;;;;;;;6.93;2.55;;;13.10;99.90;;;;;;5057332;28;20045;-89
2023/08/26 02:31:44;;;;;;;4.05;2.33;;;13.10;99.90;;;;;;5056752;28;20469;-89
2023/08/26 02:34:10;;;;;;;5.22;2.60;;;13.10;99.90;;;;;;5056453;28;20087;-89
2023/08/26 02:36:35;;;;;;;3.60;2.38;;;13.00;99.90;;;;;;5056705;28;20407;-89
2023/08/26 02:39:01;;;;;;;3.78;2.50;;;13.00;99.90;;;;;;5056454;28;20048;-89
2023/08/26 02:41:30;;;;;;;4.97;2.65;;;13.00;99.90;;;;;;5056592;28;20086;-88
2023/08/26 02:43:55;;;;;;;5.97;2.70;;;13.00;99.90;;;;;;5038409;28;20048;-88
2023/08/26 02:46:21;;;;;;;5.70;2.78;;;12.90;99.90;;;;;;5055657;28;20087;-88
2023/08/26 02:48:47;;;;;;;4.03;3.05;;;13.00;99.90;;;;;;5038014;28;20099;-87
2023/08/26 02:51:12;;;;;;;3.75;2.50;;;13.00;99.90;;;;;;5056342;28;20044;-88
2023/08/26 02:53:38;;;;;;;4.25;2.70;;;13.00;99.90;;;;;;5038135;28;20044;-88
2023/08/26 02:56:04;;;;;;;4.70;2.50;;;13.00;99.90;;;;;;5037628;28;20040;-87
2023/08/26 02:58:33;;;;;;;4.65;2.70;;;13.00;99.90;;;;;;5037937;28;20048;-87
2023/08/26 03:01:01;;;;;;;7.90;2.88;;;13.10;99.90;;;;;;5037604;28;20045;-88
2023/08/26 03:03:27;;;;;;;7.10;3.00;;;13.10;99.90;;;;;;5055929;28;20051;-88
2023/08/26 03:05:59;;;;;;;6.40;3.22;;;13.10;99.90;;;;;;5055201;28;20057;-88
2023/08/26 03:08:25;;;;;;;4.28;2.95;;;13.10;99.90;;;;;;5037927;28;20379;-88
2023/08/26 03:11:03;;;;;;;4.05;3.00;;;13.20;99.90;;;;;;5055596;28;20063;-88
2023/08/26 03:13:29;;;;;;;4.63;3.35;;;13.20;99.90;;;;;;5055047;28;20052;-88
2023/08/26 03:15:55;;;;;;;4.82;3.03;;;13.10;99.90;;;;;;5055583;28;20155;-88
2023/08/26 03:18:21;;;;;;;5.22;3.00;;;13.20;99.90;;;;;;5038125;28;20084;-87
2023/08/26 03:20:46;;;;;;;7.03;3.08;;;13.20;99.90;;;;;;5054959;28;20049;-87
2023/08/26 03:23:12;;;;;;;4.03;2.95;;;13.20;99.90;;;;;;5037679;28;20147;-88
2023/08/26 03:25:41;;;;;;;4.30;3.13;;;13.20;99.90;;;;;;5037263;28;20474;-87
2023/08/26 03:28:10;;;;;;;5.03;2.97;;;13.20;99.90;;;;;;5036942;28;20053;-88
2023/08/26 03:30:36;;;;;;;6.60;3.53;;;13.20;99.90;;;;;;5055468;28;20051;-88
2023/08/26 03:33:03;;;;;;;7.03;3.20;;;13.10;99.90;;;;;;5054532;28;20514;-88
2023/08/26 03:35:28;;;;;;;5.72;3.10;;;13.10;99.90;;;;;;5054727;28;20053;-88
2023/08/26 03:37:54;;;;;;;4.68;3.00;;;13.10;99.90;;;;;;5055456;28;20044;-88
2023/08/26 03:40:23;;;;;;;7.07;3.22;;;13.10;99.90;;;;;;5037588;28;20045;-88
2023/08/26 03:42:50;;;;;;;5.50;2.90;;;13.00;99.90;;;;;;5054598;28;20447;-88
2023/08/26 03:45:16;;;;;;;5.30;3.20;;;12.90;99.90;;;;;;5037361;28;20476;-88
2023/08/26 03:47:42;;;;;;;4.45;3.28;;;12.90;99.90;;;;;;5055279;28;20052;-89
2023/08/26 03:50:08;;;;;;;5.20;3.38;;;12.90;99.90;;;;;;5036575;28;20045;-88
2023/08/26 03:52:34;;;;;;;5.03;3.30;;;12.90;99.90;;;;;;5055537;28;20041;-89
2023/08/26 03:54:59;;;;;;;4.45;3.08;;;12.80;99.90;;;;;;5054354;28;20041;-88
2023/08/26 03:57:25;;;;;;;5.07;3.03;;;12.80;99.90;;;;;;5055192;28;20476;-89
2023/08/26 03:59:51;;;;;;;4.80;3.20;;;12.80;99.90;;;;;;5054891;28;20045;-88
2023/08/26 04:02:16;;;;;;;5.53;3.38;;;12.70;99.90;;;;;;5054808;28;20045;-88
2023/08/26 04:04:42;;;;;;;5.35;3.30;;;12.80;99.90;;;;;;5036846;28;20044;-89
2023/08/26 04:07:07;;;;;;;4.43;3.25;;;12.70;99.90;;;;;;5054641;28;20460;-89
2023/08/26 04:09:33;;;;;;;7.90;3.70;;;12.70;99.90;;;;;;5036795;28;20053;-88
2023/08/26 04:11:59;;;;;;;7.38;3.80;;;12.60;99.90;;;;;;5036659;28;20095;-88
2023/08/26 04:14:25;;;;;;;4.40;3.50;;;12.60;99.90;;;;;;5054502;28;20041;-88
2023/08/26 04:16:50;;;;;;;6.25;3.90;;;12.60;99.90;;;;;;5054208;28;20476;-87
2023/08/26 04:19:16;;;;;;;5.45;3.80;;;12.50;99.90;;;;;;5036681;28;20103;-88
2023/08/26 04:21:42;;;;;;;5.57;3.45;;;12.50;99.90;;;;;;5054330;28;20033;-88
2023/08/26 04:24:07;;;;;;;5.07;3.78;;;12.40;99.90;;;;;;5053874;28;20120;-88
2023/08/26 04:26:33;;;;;;;6.60;3.70;;;12.40;99.90;;;;;;5053557;28;20029;-88
2023/08/26 04:28:59;;;;;;;5.88;3.28;;;12.40;99.90;;;;;;5035964;28;20128;-88
2023/08/26 04:31:24;;;;;;;7.05;3.60;;;12.40;99.90;;;;;;5053521;28;20495;-86
2023/08/26 04:33:51;;;;;;;8.10;3.50;;;12.40;99.90;;;;;;5035851;28;20476;-87
2023/08/26 04:36:17;;;;;;;4.97;3.67;;;12.40;99.90;;;;;;5054416;28;20045;-87
2023/08/26 04:38:43;;;;;;;5.57;3.38;;;12.40;99.90;;;;;;5053316;28;20049;-87
2023/08/26 04:41:09;;;;;;;8.32;3.42;;;12.40;99.90;;;;;;5035964;28;20059;-88
2023/08/26 04:43:35;;;;;;;6.80;4.07;;;12.40;99.90;;;;;;5053544;28;20047;-87
2023/08/26 04:46:01;;;;;;;6.20;3.38;;;12.40;99.90;;;;;;5035932;28;20099;-88
2023/08/26 04:48:29;;;;;;;4.85;3.58;;;12.40;99.90;;;;;;5053687;28;20048;-88
2023/08/26 04:50:55;;;;;;;7.25;3.72;;;12.40;99.90;;;;;;5034512;28;20480;-87
2023/08/26 04:53:21;;;;;;;5.00;3.55;;;12.40;99.90;;;;;;5023664;28;20040;-88
2023/08/26 04:55:51;;;;;;;5.55;3.53;;;12.40;99.90;;;;;;5021282;28;20057;-89
2023/08/26 04:58:18;;;;;;;5.15;3.40;;;12.50;99.90;;;;;;5049319;28;20045;-88
2023/08/26 05:00:45;;;;;;;5.43;3.50;;;12.50;99.90;;;;;;5053556;28;20045;-85
2023/08/26 05:03:10;;;;;;;4.65;3.60;;;12.50;99.90;;;;;;5034657;28;20072;-86
2023/08/26 05:05:40;;;;;;;7.70;4.03;;;12.50;99.90;;;;;;5052893;28;20053;-79
2023/08/26 05:08:06;;;;;;;4.70;3.90;;;12.50;99.90;;;;;;5046600;28;20080;-81
2023/08/26 05:10:32;;;;;;;7.85;4.10;;;12.60;99.90;;;;;;5033028;28;20060;-87
2023/08/26 05:13:01;;;;;;;5.82;3.83;;;12.60;99.90;;;;;;5024346;28;20045;-89
2023/08/26 05:15:28;;;;;;;5.68;4.30;;;12.60;99.90;;;;;;5052959;28;20101;-82
2023/08/26 05:17:54;;;;;;;5.28;3.90;;;12.60;99.90;;;;;;5052546;28;20472;-81
2023/08/26 05:20:20;;;;;;;5.50;3.75;;;12.60;99.90;;;;;;5052573;28;20044;-87
2023/08/26 05:22:46;;;;;;;7.50;4.20;;;12.70;99.90;;;;;;5034225;28;20056;-81
2023/08/26 05:25:11;;;;;;;7.80;4.07;;;12.20;99.90;;;;;;5035071;28;20067;-92
2023/08/26 05:27:37;;;;;;;7.03;4.25;;;12.80;99.90;;;;;;5033973;28;20098;-87
2023/08/26 05:30:04;;;;;;;8.63;4.40;;;12.80;99.90;;;;;;5034819;28;20057;-88
2023/08/26 05:32:30;;;;;;;5.65;4.32;;;13.30;99.90;;;;;;5052390;28;20037;-84
2023/08/26 05:34:59;;;;;;;6.03;4.20;;;13.00;99.90;;;;;;5038310;28;20052;-82
2023/08/26 05:37:25;;;;;;;6.53;4.50;;;13.00;99.90;;;;;;5050932;28;20492;-81
2023/08/26 05:39:50;;;;;;;8.50;4.32;;;13.20;99.90;;;;;;5015281;28;20053;-85
2023/08/26 05:42:16;;;;;;;5.72;3.97;;;13.30;99.90;;;;;;5040537;28;20091;-83
2023/08/26 05:44:42;;;;;;;6.85;3.70;;;13.30;99.90;;;;;;5053571;28;20045;-89
2023/08/26 05:47:07;;;;;;;7.82;3.97;;;13.50;99.90;;;;;;5043580;28;20483;-86
2023/08/26 05:49:33;;;;;;;6.65;4.13;;;13.60;99.90;;;;;;5037821;28;20041;-82
2023/08/26 05:51:59;;;;;;;13.15;4.28;;;13.80;99.90;;;;;;5029574;28;20046;-82
2023/08/26 05:54:25;;;;;;;5.25;4.15;;;13.90;99.90;;;;;;5032619;28;20140;-82
2023/08/26 05:56:50;;;;;;;9.40;4.35;;;14.10;99.90;;;;;;5033874;28;20098;-82
2023/08/26 05:59:16;;;;;;;6.10;4.10;;;14.30;99.90;;;;;;5014895;28;20447;-83
2023/08/26 06:01:42;;;;;;;7.43;4.82;;;14.40;99.90;;;;;;5032161;28;20128;-82
2023/08/26 06:04:08;;;;;;;8.57;4.22;;;14.60;99.90;;;;;;5032292;28;20110;-82
2023/08/26 06:06:34;;;;;;;9.80;4.93;;;14.80;99.90;;;;;;5032503;28;20473;-82
2023/08/26 06:09:00;;;;;;;11.25;5.30;;;14.90;99.90;;;;;;5037734;28;20049;-82
2023/08/26 06:11:26;;;;;;;8.98;5.13;;;15.00;99.90;;;;;;5050810;28;20147;-82
2023/08/26 06:13:52;;;;;;;7.22;4.50;;;15.10;99.90;;;;;;5032861;28;20041;-82
2023/08/26 06:16:20;;;;;;;7.13;5.40;;;15.10;99.90;;;;;;5050677;28;20534;-82
2023/08/26 06:18:49;;;;;;;8.85;6.07;;;15.20;99.90;;;;;;5033076;28;20052;-82
2023/08/26 06:21:15;;;;;;;8.52;6.38;;;15.40;99.90;;;;;;5032964;28;20464;-82
2023/08/26 06:23:41;;;;;;;12.18;6.60;;;15.50;99.90;;;;;;5032479;28;20190;-82
2023/08/26 06:26:06;;;;;;;8.40;6.20;;;15.60;99.90;;;;;;5050825;28;20556;-82
2023/08/26 06:28:32;;;;;;;11.13;6.50;;;15.70;99.90;;;;;;5050982;28;20069;-82
2023/08/26 06:30:59;;;;;;;8.07;6.90;;;15.70;99.90;;;;;;5050061;28;20364;-83
2023/08/26 06:33:25;;;;;;;10.95;6.80;;;15.80;99.90;;;;;;5051003;28;20048;-83
2023/08/26 06:35:51;;;;;;;8.93;6.47;;;15.80;99.90;;;;;;5037204;28;20053;-83
2023/08/26 06:38:17;;;;;;;10.07;6.20;;;15.90;99.90;;;;;;5051709;28;20048;-76
2023/08/26 06:40:43;;;;;;;9.32;6.22;;;16.00;99.90;;;;;;5051875;28;20116;-77
2023/08/26 06:43:08;;;;;;;10.82;7.20;;;16.00;99.90;;;;;;5051835;28;20140;-74
2023/08/26 06:45:34;;;;;;;8.27;6.35;;;16.20;99.90;;;;;;5051539;28;20071;-75
2023/08/26 06:48:00;;;;;;;9.27;6.38;;;16.30;99.90;;;;;;5033751;28;20094;-76
2023/08/26 06:50:26;;;;;;;9.02;6.45;;;16.50;99.90;;;;;;5051308;28;20418;-77
2023/08/26 06:52:51;;;;;;;8.70;6.15;;;16.60;99.90;;;;;;5051143;28;20062;-72
2023/08/26 06:55:18;;;;;;;10.35;6.57;;;16.80;99.90;;;;;;5052186;28;20442;-72
2023/08/26 06:57:44;;;;;;;12.27;6.55;;;16.90;99.90;;;;;;5051663;28;20045;-72
2023/08/26 07:00:12;;;;;;;9.18;6.97;;;17.10;99.90;;;;;;5051370;28;20076;-74
2023/08/26 07:02:37;;;;;;;9.35;6.45;;;17.30;99.90;;;;;;5051798;28;20543;-73
2023/08/26 07:05:04;;;;;;;10.27;6.90;;;17.40;99.90;;;;;;5049406;28;20143;-74
2023/08/26 07:07:30;;;;;;;9.15;6.57;;;17.50;99.90;;;;;;5053554;28;20060;-72
2023/08/26 07:09:55;;;;;;;11.95;7.13;;;17.60;99.90;;;;;;5055018;28;20049;-72
2023/08/26 07:12:21;;;;;;;9.73;7.32;;;17.70;99.90;;;;;;5037088;28;20044;-73
2023/08/26 07:14:47;;;;;;;14.77;8.25;;;17.90;99.90;;;;;;5054496;28;20449;-73
2023/08/26 07:17:15;;;;;;;8.60;6.22;;;17.90;99.90;;;;;;5055189;28;20040;-72
2023/08/26 07:19:41;;;;;;;9.88;6.25;;;18.00;99.90;;;;;;5054327;28;20059;-72
2023/08/26 07:22:07;;;;;;;11.85;6.35;;;18.10;99.90;;;;;;5036778;28;20484;-72
2023/08/26 07:24:33;;;;;;;10.15;6.65;;;18.20;99.90;;;;;;5055441;28;20040;-75
2023/08/26 07:26:58;;;;;;;11.30;7.75;;;18.20;99.90;;;;;;5053825;28;20037;-75
2023/08/26 07:29:24;;;;;;;11.82;7.60;;;17.90;99.90;;;;;;5052233;28;20045;-75
2023/08/26 07:31:49;;;;;;;11.65;7.60;;;17.90;99.90;;;;;;5043190;28;20113;-75
2023/08/26 07:34:15;;;;;;;8.75;6.63;;;17.80;99.90;;;;;;5034318;28;20446;-75
2023/08/26 07:36:41;;;;;;;9.75;6.30;;;17.70;99.90;;;;;;5038911;28;20435;-75
2023/08/26 07:39:06;;;;;;;11.68;5.70;;;17.70;99.90;;;;;;5034928;28;20420;-75
2023/08/26 07:41:32;;;;;;;9.25;6.35;;;17.70;99.90;;;;;;5034262;28;20116;-76
2023/08/26 07:43:58;;;;;;;8.30;6.30;;;17.80;99.90;;;;;;5017046;28;20045;-76
2023/08/26 07:46:23;;;;;;;8.98;6.22;;;18.00;99.90;;;;;;5035001;28;20040;-76
2023/08/26 07:48:49;;;;;;;9.32;6.28;;;18.40;99.90;;;;;;5034953;28;20045;-76
2023/08/26 07:51:16;;;;;;;9.52;6.00;;;18.80;99.90;;;;;;5035013;28;20045;-76
2023/08/26 07:53:41;;;;;;;9.50;6.28;;;18.90;99.90;;;;;;5017358;28;20116;-77
2023/08/26 07:56:08;;;;;;;7.72;5.78;;;18.90;99.90;;;;;;5033843;28;20452;-76
2023/08/26 07:58:33;;;;;;;9.30;6.00;;;18.80;99.90;;;;;;5017316;28;20052;-76
2023/08/26 08:00:59;;;;;;;10.88;6.43;;;18.70;99.90;;;;;;5034205;28;20388;-76
2023/08/26 08:03:25;;;;;;;9.07;5.47;;;18.60;99.90;;;;;;5034742;28;20381;-76
2023/08/26 08:05:51;;;;;;;8.63;5.53;;;18.70;99.90;;;;;;5034344;28;20162;-76
2023/08/26 08:08:16;;;;;;;7.93;5.03;;;19.20;99.90;;;;;;5033981;28;20049;-76
2023/08/26 08:10:42;;;;;;;8.15;3.95;;;20.40;99.90;;;;;;5016521;28;20412;-76
2023/08/26 08:13:08;;;;;;;7.13;2.97;;;21.50;99.90;;;;;;5034169;28;20391;-76
2023/08/26 08:15:34;;;;;;;6.57;2.75;;;22.30;99.90;;;;;;5036577;28;20044;-76
2023/08/26 08:18:02;;;;;;;5.80;2.40;;;22.90;99.90;;;;;;5033873;28;20041;-76
2023/08/26 08:20:28;;;;;;;5.20;2.58;;;23.30;99.90;;;;;;5034770;28;20045;-76
2023/08/26 08:22:53;;;;;;;5.88;2.30;;;23.90;99.90;;;;;;5034655;28;20033;-76
2023/08/26 08:25:19;;;;;;;5.45;1.90;;;24.30;99.90;;;;;;5036224;28;20045;-77
2023/08/26 08:27:44;;;;;;;4.43;1.90;;;24.50;99.90;;;;;;5044528;28;20041;-77
2023/08/26 08:30:11;;;;;;;3.75;1.77;;;24.80;99.90;;;;;;5052811;28;20048;-77
2023/08/26 08:32:36;;;;;;;6.45;1.73;;;25.30;99.90;;;;;;5053770;28;20049;-78
2023/08/26 08:35:03;;;;;;;4.00;1.65;;;25.90;99.80;;;;;;5036060;28;20051;-78
2023/08/26 08:37:29;;;;;;;4.93;1.20;;;26.30;99.20;;;;;;5053016;28;20437;-77
2023/08/26 08:39:55;;;;;;;2.70;1.13;;;26.80;97.60;;;;;;5042422;28;20076;-77
2023/08/26 08:42:22;;;;;;;7.15;1.30;;;26.90;96.50;;;;;;5024981;28;20450;-78
2023/08/26 08:44:48;;;;;;;5.03;1.33;;;26.80;96.80;;;;;;5040988;28;20056;-76
2023/08/26 08:47:15;;;;;;;4.47;1.05;;;26.90;96.90;;;;;;5044050;28;20079;-73
2023/08/26 08:49:43;;;;;;;6.95;1.17;;;26.30;95.30;;;;;;5042956;28;20053;-71
2023/08/26 08:52:10;;;;;;;3.15;1.15;;;26.00;95.20;;;;;;5041417;28;20045;-71
2023/08/26 08:54:36;;;;;;;3.28;1.02;;;26.40;94.90;;;;;;5047861;28;20041;-74
2023/08/26 08:57:03;;;;;;;2.70;0.93;;;26.70;95.10;;;;;;5028582;28;20053;-72
2023/08/26 08:59:34;;;;;;;3.90;1.30;;;27.30;95.30;;;;;;5043891;28;20109;-73
2023/08/26 09:02:05;;;;;;;3.38;1.23;;;27.20;94.00;;;;;;5034205;28;20095;-73
2023/08/26 09:04:31;;;;;;;3.63;1.20;;;27.10;94.60;;;;;;5049978;28;20152;-75
2023/08/26 09:06:57;;;;;;;3.95;1.15;;;27.00;95.40;;;;;;5048190;28;20407;-75
2023/08/26 09:09:23;;;;;;;3.80;1.50;;;27.30;94.30;;;;;;5046747;28;20452;-77
2023/08/26 09:11:50;;;;;;;4.32;1.20;;;26.80;94.00;;;;;;5031647;28;20037;-74
2023/08/26 09:14:16;;;;;;;2.72;1.00;;;27.20;94.10;;;;;;5033304;28;20045;-73
2023/08/26 09:16:45;;;;;;;3.22;0.90;;;27.40;93.50;;;;;;5034287;28;20080;-74
2023/08/26 09:19:12;;;;;;;4.50;1.13;;;27.30;94.00;;;;;;5051671;28;20138;-73
2023/08/26 09:21:44;;;;;;;3.03;1.20;;;27.80;93.90;;;;;;5051914;28;20051;-73
2023/08/26 09:24:14;;;;;;;4.15;1.50;;;27.50;94.10;;;;;;5051704;28;20040;-74
2023/08/26 09:26:41;;;;;;;4.05;1.33;;;26.50;95.00;;;;;;5051221;28;20048;-74
2023/08/26 09:29:20;;;;;;;3.85;1.65;;;25.30;95.70;;;;;;5033975;28;20055;-79
2023/08/26 09:31:47;;;;;;;4.55;1.75;;;23.70;98.30;;;;;;5034338;28;20155;-76
2023/08/26 09:34:28;;;;;;;5.82;2.25;;;23.00;99.90;;;;;;5050131;28;20045;-75
2023/08/26 09:36:54;;;;;;;6.53;2.65;;;22.10;99.90;;;;;;5049353;28;20086;-76
2023/08/26 09:39:21;;;;;;;6.75;3.00;;;21.70;99.90;;;;;;5042205;28;20041;-76
2023/08/26 09:41:47;;;;;;;8.45;3.22;;;21.10;99.90;;;;;;5029698;28;20127;-77
2023/08/26 09:44:21;;;;;;;5.32;3.08;;;20.90;99.90;;;;;;5034235;28;20048;-79
2023/08/26 09:46:47;;;;;;;5.75;3.25;;;20.70;99.90;;;;;;5040503;28;20116;-77
2023/08/26 09:49:17;;;;;;;7.53;3.90;;;20.60;99.90;;;;;;5025452;28;20193;-77
2023/08/26 09:51:48;;;;;;;5.95;3.72;;;20.60;99.90;;;;;;5041407;28;20490;-75
2023/08/26 09:54:19;;;;;;;6.45;4.50;;;20.60;99.90;;;;;;5030266;28;20051;-77
2023/08/26 09:56:46;;;;;;;8.07;5.00;;;20.40;99.90;;;;;;5052248;28;20179;-77
2023/08/26 09:59:12;;;;;;;7.18;4.20;;;20.90;99.90;;;;;;5034381;28;20182;-81
2023/08/26 10:01:39;;;;;;;8.13;4.10;;;21.30;99.90;;;;;;5051561;28;20072;-76
2023/08/26 10:04:09;;;;;;;6.88;4.18;;;21.70;99.90;;;;;;5034670;28;20049;-79
2023/08/26 10:06:43;;;;;;;7.45;3.63;;;22.10;99.90;;;;;;5032059;28;20156;-80
2023/08/26 10:09:27;;;;;;;5.75;3.40;;;22.40;99.90;;;;;;5032384;28;20183;-80
2023/08/26 10:11:54;;;;;;;7.78;2.60;;;22.70;99.90;;;;;;5042564;28;20051;-80
2023/08/26 10:14:23;;;;;;;4.72;1.90;;;23.00;99.90;;;;;;5051895;28;20049;-77
2023/08/26 10:16:52;;;;;;;4.53;2.00;;;23.60;99.90;;;;;;5051009;28;20518;-75
2023/08/26 10:19:19;;;;;;;3.97;1.90;;;23.80;99.90;;;;;;5034329;28;20049;-77
2023/08/26 10:21:45;;;;;;;3.85;1.70;;;24.10;99.90;;;;;;5034140;28;20077;-79
2023/08/26 10:24:10;;;;;;;4.95;1.90;;;24.10;99.90;;;;;;5034275;28;20110;-84
2023/08/26 10:26:37;;;;;;;3.80;1.70;;;24.50;99.40;;;;;;5051877;28;20044;-81
2023/08/26 10:29:03;;;;;;;4.50;1.65;;;24.10;99.40;;;;;;5033570;28;20052;-81
2023/08/26 10:31:36;;;;;;;3.35;1.88;;;23.80;99.90;;;;;;5031214;28;20132;-80
2023/08/26 10:34:08;;;;;;;3.15;1.65;;;23.80;99.90;;;;;;5032129;28;20049;-82
2023/08/26 10:36:45;;;;;;;3.80;1.90;;;23.50;99.90;;;;;;5031435;28;20489;-81
2023/08/26 10:39:15;;;;;;;3.15;1.50;;;23.30;99.90;;;;;;5031869;28;20476;-81
2023/08/26 10:42:16;;;;;;;4.28;1.60;;;24.00;99.90;;;;;;5033017;28;20042;-82
2023/08/26 10:44:45;;;;;;;3.30;1.42;;;25.10;99.20;;;;;;5044785;28;20132;-79
2023/08/26 10:47:11;;;;;;;4.00;1.50;;;25.90;98.40;;;;;;5055016;28;20041;-79
2023/08/26 10:49:37;;;;;;;5.53;1.50;;;25.80;97.60;;;;;;5054773;28;20079;-78
2023/08/26 10:52:19;;;;;;;3.35;1.55;;;25.80;97.30;;;;;;5037288;28;20544;-78
2023/08/26 10:54:46;;;;;;;3.60;2.00;;;25.30;97.90;;;;;;5055927;28;20053;-77
2023/08/26 10:57:12;;;;;;;3.90;2.03;;;24.90;98.40;;;;;;5055184;28;20506;-78
2023/08/26 10:59:41;;;;;;;3.38;1.73;;;24.20;99.00;;;;;;5037489;28;20049;-74
2023/08/26 11:02:08;;;;;;;5.20;2.00;;;23.60;99.90;;;;;;5055087;28;20044;-75
2023/08/26 11:04:42;;;;;;;3.78;1.83;;;23.40;99.90;;;;;;5037277;28;20484;-81
2023/08/26 11:07:16;;;;;;;2.47;1.70;;;23.70;99.90;;;;;;5055423;28;20043;-76
2023/08/26 11:09:42;;;;;;;2.95;1.30;;;23.50;99.90;;;;;;5037610;28;20442;-82
2023/08/26 11:12:25;;;;;;;4.28;1.45;;;23.40;99.90;;;;;;5036728;28;20047;-81
2023/08/26 11:14:53;;;;;;;4.72;1.45;;;23.50;99.90;;;;;;5055274;28;20052;-81
2023/08/26 11:17:19;;;;;;;2.83;1.38;;;23.90;99.20;;;;;;5054664;28;20541;-80
2023/08/26 11:19:44;;;;;;;2.78;1.20;;;24.80;98.80;;;;;;5054788;28;20048;-79
2023/08/26 11:22:11;;;;;;;2.38;1.00;;;25.20;98.60;;;;;;5054949;28;20053;-78
2023/08/26 11:24:37;;;;;;;6.38;1.30;;;25.50;98.30;;;;;;5054901;28;20040;-79
2023/08/26 11:27:03;;;;;;;2.28;1.17;;;25.90;97.90;;;;;;5036177;28;20547;-76
2023/08/26 11:29:29;;;;;;;3.88;1.17;;;26.20;97.00;;;;;;5055240;28;20055;-76
2023/08/26 11:31:55;;;;;;;4.07;1.13;;;26.20;95.50;;;;;;5037170;28;20051;-76
2023/08/26 11:34:23;;;;;;;2.33;1.17;;;25.70;96.00;;;;;;5036347;28;20480;-76
2023/08/26 11:36:51;;;;;;;3.45;1.40;;;25.30;96.50;;;;;;5054879;28;20048;-75
2023/08/26 11:39:18;;;;;;;6.60;1.80;;;25.00;96.70;;;;;;5054632;28;20084;-77
2023/08/26 11:41:43;;;;;;;8.07;1.98;;;24.60;97.40;;;;;;5054570;28;20051;-78
2023/08/26 11:44:18;;;;;;;5.10;2.03;;;24.00;98.40;;;;;;5054505;28;20049;-78
2023/08/26 11:46:44;;;;;;;5.10;1.67;;;23.70;98.50;;;;;;5036334;28;20120;-78
2023/08/26 11:49:11;;;;;;;3.88;1.60;;;23.30;98.80;;;;;;5054637;28;20123;-81
2023/08/26 11:51:40;;;;;;;4.38;1.40;;;23.20;99.60;;;;;;5036407;28;20083;-81
2023/08/26 11:54:06;;;;;;;4.43;1.23;;;23.70;99.30;;;;;;5052231;28;20619;-80
2023/08/26 11:56:32;;;;;;;2.90;0.90;;;24.10;99.50;;;;;;5036223;28;20098;-80
2023/08/26 11:58:57;;;;;;;3.08;1.33;;;24.90;97.70;;;;;;5046152;28;20091;-82
2023/08/26 12:01:25;;;;;;;3.53;1.30;;;24.90;97.60;;;;;;5053356;28;20053;-79
2023/08/26 12:03:50;;;;;;;4.38;1.40;;;24.80;96.90;;;;;;5050526;28;20043;-77
2023/08/26 12:06:18;;;;;;;4.25;1.60;;;24.80;97.60;;;;;;5042255;28;20120;-77
2023/08/26 12:08:51;;;;;;;5.18;1.58;;;24.70;97.60;;;;;;5041038;28;20056;-75
2023/08/26 12:11:17;;;;;;;4.60;1.70;;;25.00;97.80;;;;;;5040790;28;20446;-75
2023/08/26 12:13:43;;;;;;;3.20;1.83;;;25.10;97.70;;;;;;5044793;28;20116;-79
2023/08/26 12:16:09;;;;;;;3.83;1.30;;;25.30;98.40;;;;;;5032100;28;20466;-79
2023/08/26 12:18:35;;;;;;;4.32;1.65;;;25.30;98.10;;;;;;5033390;28;20053;-79
2023/08/26 12:21:01;;;;;;;4.25;1.45;;;24.90;98.10;;;;;;5053708;28;20377;-82
2023/08/26 12:23:26;;;;;;;2.90;1.50;;;25.30;97.80;;;;;;5035109;28;20470;-79
2023/08/26 12:25:52;;;;;;;2.03;1.27;;;25.50;98.20;;;;;;5035125;28;20052;-79
2023/08/26 12:28:24;;;;;;;4.80;1.73;;;25.30;97.70;;;;;;5052861;28;20041;-80
2023/08/26 12:30:50;;;;;;;3.40;1.67;;;25.10;98.10;;;;;;5035654;28;20099;-81
2023/08/26 12:33:17;;;;;;;2.92;1.30;;;25.00;97.80;;;;;;5035813;28;20041;-78
2023/08/26 12:35:44;;;;;;;2.30;0.90;;;25.20;97.80;;;;;;5035470;28;20049;-80
2023/08/26 12:38:10;;;;;;;2.97;1.20;;;25.50;96.80;;;;;;5053377;28;20128;-81
2023/08/26 12:40:46;;;;;;;4.40;1.23;;;25.60;96.80;;;;;;5036240;28;20080;-81
2023/08/26 12:43:12;;;;;;;3.42;1.20;;;25.30;96.90;;;;;;5052955;28;20041;-76
2023/08/26 12:45:37;;;;;;;3.22;1.20;;;25.40;96.60;;;;;;5053802;28;20059;-76